createdAt,value
2018-11-29T00:00:46.133Z,-1.35
2018-11-29T00:03:15.587Z,-1.35
2018-11-29T00:05:45.126Z,-1.37
2018-11-29T00:08:14.552Z,-1.36
2018-11-29T00:10:44.045Z,-1.35
2018-11-29T00:13:13.547Z,-1.31
2018-11-29T00:15:43.047Z,-1.30
2018-11-29T00:18:12.539Z,-1.29
2018-11-29T00:20:42.029Z,-1.28
2018-11-29T00:23:11.662Z,-1.28
2018-11-29T00:25:41.121Z,-1.31
2018-11-29T00:28:10.673Z,-1.33
2018-11-29T00:30:40.205Z,-1.36
2018-11-29T00:33:09.686Z,-1.37
2018-11-29T00:35:39.149Z,-1.40
2018-11-29T00:38:08.788Z,-1.40
2018-11-29T00:40:38.293Z,-1.43
2018-11-29T00:43:07.769Z,-1.46
2018-11-29T00:45:37.231Z,-1.48
2018-11-29T00:48:06.824Z,-1.48
2018-11-29T00:50:36.344Z,-1.50
2018-11-29T00:53:05.930Z,-1.52
2018-11-29T00:55:35.465Z,-1.56
2018-11-29T00:58:04.963Z,-1.59
2018-11-29T01:00:34.675Z,-1.61
2018-11-29T01:03:04.179Z,-1.62
2018-11-29T01:05:33.612Z,-1.64
2018-11-29T01:08:03.179Z,-1.63
2018-11-29T01:10:32.612Z,-1.61
2018-11-29T01:13:02.083Z,-1.60
2018-11-29T01:15:31.541Z,-1.60
2018-11-29T01:18:01.012Z,-1.59
2018-11-29T01:20:30.517Z,-1.61
2018-11-29T01:23:00.008Z,-1.62
2018-11-29T01:25:29.504Z,-1.64
2018-11-29T01:27:58.983Z,-1.64
2018-11-29T01:30:28.513Z,-1.65
2018-11-29T01:32:58.021Z,-1.69
2018-11-29T01:35:27.440Z,-1.71
2018-11-29T01:37:56.909Z,-1.75
2018-11-29T01:40:26.354Z,-1.78
2018-11-29T01:42:57.967Z,-1.78
2018-11-29T01:45:27.658Z,-1.75
2018-11-29T01:47:57.134Z,-1.75
2018-11-29T01:50:26.600Z,-1.76
2018-11-29T01:52:56.080Z,-1.78
2018-11-29T01:55:25.527Z,-1.80
2018-11-29T01:57:55.040Z,-1.83
2018-11-29T02:00:24.508Z,-1.82
2018-11-29T02:02:54.360Z,-1.82
2018-11-29T02:05:23.828Z,-1.81
2018-11-29T02:07:53.372Z,-1.80
2018-11-29T02:10:26.095Z,-1.79
2018-11-29T02:12:56.204Z,-1.81
2018-11-29T02:15:25.669Z,-1.80
2018-11-29T02:17:55.284Z,-1.79
2018-11-29T02:20:24.740Z,-1.79
2018-11-29T02:22:54.272Z,-1.79
2018-11-29T02:25:23.767Z,-1.77
2018-11-29T02:27:53.376Z,-1.74
2018-11-29T02:30:23.682Z,-1.74
2018-11-29T02:32:53.518Z,-1.73
2018-11-29T02:35:23.050Z,-1.69
2018-11-29T02:37:52.524Z,-1.66
2018-11-29T02:40:21.996Z,-1.63
2018-11-29T02:42:52.116Z,-1.60
2018-11-29T02:45:23.517Z,-1.56
2018-11-29T02:47:52.989Z,-1.53
2018-11-29T02:50:22.482Z,-1.50
2018-11-29T02:52:52.241Z,-1.47
2018-11-29T02:55:21.987Z,-1.44
2018-11-29T02:57:51.749Z,-1.43
2018-11-29T03:00:21.533Z,-1.41
2018-11-29T03:02:51.282Z,-1.42
2018-11-29T03:05:21.029Z,-1.41
2018-11-29T03:07:50.725Z,-1.40
2018-11-29T03:10:26.537Z,-1.40
2018-11-29T03:12:56.401Z,-1.43
2018-11-29T03:15:26.191Z,-1.46
2018-11-29T03:17:55.936Z,-1.46
2018-11-29T03:20:25.665Z,-1.47
2018-11-29T03:22:55.506Z,-1.48
2018-11-29T03:25:25.236Z,-1.49
2018-11-29T03:27:54.933Z,-1.50
2018-11-29T03:30:24.633Z,-1.51
2018-11-29T03:32:54.363Z,-1.51
2018-11-29T03:35:24.205Z,-1.51
2018-11-29T03:37:53.896Z,-1.52
2018-11-29T03:40:23.726Z,-1.54
2018-11-29T03:42:53.481Z,-1.54
2018-11-29T03:45:23.217Z,-1.55
2018-11-29T03:47:52.901Z,-1.56
2018-11-29T03:50:22.679Z,-1.55
2018-11-29T03:52:52.372Z,-1.54
2018-11-29T03:55:22.081Z,-1.50
2018-11-29T03:57:51.804Z,-1.47
2018-11-29T04:00:21.497Z,-1.44
2018-11-29T04:02:51.294Z,-1.42
2018-11-29T04:05:20.999Z,-1.42
2018-11-29T04:07:50.749Z,-1.41
2018-11-29T04:10:20.441Z,-1.40
2018-11-29T04:12:50.360Z,-1.39
2018-11-29T04:15:20.139Z,-1.39
2018-11-29T04:17:49.856Z,-1.38
2018-11-29T04:20:19.570Z,-1.37
2018-11-29T04:22:49.276Z,-1.38
2018-11-29T04:25:19.048Z,-1.40
2018-11-29T04:27:48.801Z,-1.39
2018-11-29T04:30:18.696Z,-1.39
2018-11-29T04:32:48.431Z,-1.40
2018-11-29T04:35:18.153Z,-1.40
2018-11-29T04:37:47.879Z,-1.41
2018-11-29T04:40:18.572Z,-1.40
2018-11-29T04:42:48.515Z,-1.41
2018-11-29T04:45:18.954Z,-1.44
2018-11-29T04:47:48.786Z,-1.47
2018-11-29T04:50:18.780Z,-1.48
2018-11-29T04:52:48.517Z,-1.49
2018-11-29T04:55:18.228Z,-1.49
2018-11-29T04:57:47.937Z,-1.48
2018-11-29T05:00:17.995Z,-1.50
2018-11-29T05:02:47.741Z,-1.50
2018-11-29T05:05:17.472Z,-1.50
2018-11-29T05:07:47.241Z,-1.51
2018-11-29T05:10:17.787Z,-1.51
2018-11-29T05:12:48.324Z,-1.49
2018-11-29T05:15:18.165Z,-1.49
2018-11-29T05:17:47.951Z,-1.46
2018-11-29T05:20:17.746Z,-1.44
2018-11-29T05:22:47.508Z,-1.43
2018-11-29T05:25:17.351Z,-1.40
2018-11-29T05:27:47.063Z,-1.39
2018-11-29T05:30:16.925Z,-1.36
2018-11-29T05:32:46.801Z,-1.33
2018-11-29T05:35:16.595Z,-1.29
2018-11-29T05:37:46.417Z,-1.26
2018-11-29T05:40:16.232Z,-1.24
2018-11-29T05:42:46.101Z,-1.23
2018-11-29T05:45:18.732Z,-1.22
2018-11-29T05:47:48.575Z,-1.20
2018-11-29T05:50:18.372Z,-1.18
2018-11-29T05:52:48.163Z,-1.15
2018-11-29T05:55:17.908Z,-1.15
2018-11-29T05:57:47.689Z,-1.14
2018-11-29T06:00:17.533Z,-1.13
2018-11-29T06:02:47.250Z,-1.10
2018-11-29T06:05:17.764Z,-1.09
2018-11-29T06:07:47.465Z,-1.08
2018-11-29T06:10:19.330Z,-1.09
2018-11-29T06:12:49.504Z,-1.09
2018-11-29T06:15:19.369Z,-1.08
2018-11-29T06:17:49.148Z,-1.09
2018-11-29T06:20:20.250Z,-1.09
2018-11-29T06:22:50.023Z,-1.10
2018-11-29T06:25:19.742Z,-1.09
2018-11-29T06:27:49.458Z,-1.08
2018-11-29T06:30:22.304Z,-1.07
2018-11-29T06:32:53.205Z,-1.08
2018-11-29T06:35:22.979Z,-1.05
2018-11-29T06:37:52.697Z,-1.03
2018-11-29T06:40:22.544Z,-0.99
2018-11-29T06:42:52.761Z,-0.97
2018-11-29T06:45:23.150Z,-0.98
2018-11-29T06:47:53.891Z,-0.98
2018-11-29T06:50:23.728Z,-0.99
2018-11-29T06:52:53.697Z,-0.98
2018-11-29T06:55:25.408Z,-0.98
2018-11-29T06:57:55.557Z,-0.99
2018-11-29T07:00:31.428Z,-1.01
2018-11-29T07:03:01.236Z,-1.03
2018-11-29T07:05:31.072Z,-1.07
2018-11-29T07:08:00.826Z,-1.10
2018-11-29T07:10:33.270Z,-1.09
2018-11-29T07:13:04.486Z,-1.10
2018-11-29T07:15:34.237Z,-1.08
2018-11-29T07:18:04.356Z,-1.04
2018-11-29T07:20:34.070Z,-1.02
2018-11-29T07:23:03.872Z,-0.98
2018-11-29T07:25:33.581Z,-0.95
2018-11-29T07:28:03.337Z,-0.92
2018-11-29T07:30:33.122Z,-0.87
2018-11-29T07:33:02.928Z,-0.76
2018-11-29T07:35:32.690Z,-0.60
2018-11-29T07:38:02.407Z,-0.49
2018-11-29T07:40:32.595Z,-0.33
2018-11-29T07:43:02.357Z,-0.19
2018-11-29T07:45:32.088Z,-0.12
2018-11-29T07:48:01.823Z,-0.10
2018-11-29T07:50:31.578Z,0.13
2018-11-29T07:53:01.401Z,0.58
2018-11-29T07:55:31.136Z,1.17
2018-11-29T07:58:00.923Z,1.65
2018-11-29T08:00:30.754Z,1.99
2018-11-29T08:03:00.461Z,2.29
2018-11-29T08:05:30.161Z,2.55
2018-11-29T08:07:59.896Z,2.89
2018-11-29T08:10:29.588Z,2.70
2018-11-29T08:12:59.336Z,2.22
2018-11-29T08:15:29.049Z,1.69
2018-11-29T08:17:58.741Z,1.34
2018-11-29T08:20:28.415Z,1.15
2018-11-29T08:22:58.140Z,1.01
2018-11-29T08:25:27.860Z,0.90
2018-11-29T08:27:57.573Z,0.87
2018-11-29T08:30:27.298Z,0.93
2018-11-29T08:32:56.991Z,1.02
2018-11-29T08:35:26.742Z,1.12
2018-11-29T08:37:56.472Z,1.25
2018-11-29T08:40:26.198Z,1.39
2018-11-29T08:42:55.932Z,1.59
2018-11-29T08:45:25.724Z,2.19
2018-11-29T08:47:55.398Z,2.98
2018-11-29T08:50:25.149Z,3.60
2018-11-29T08:52:54.816Z,4.30
2018-11-29T08:55:24.719Z,4.53
2018-11-29T08:57:54.466Z,4.44
2018-11-29T09:00:24.288Z,4.12
2018-11-29T09:02:53.998Z,3.80
2018-11-29T09:05:23.804Z,3.33
2018-11-29T09:07:53.480Z,2.89
2018-11-29T09:10:24.420Z,2.59
2018-11-29T09:12:54.378Z,2.38
2018-11-29T09:15:24.165Z,2.18
2018-11-29T09:17:54.024Z,2.03
2018-11-29T09:20:24.036Z,1.94
2018-11-29T09:22:53.815Z,1.89
2018-11-29T09:25:24.232Z,1.94
2018-11-29T09:27:53.959Z,1.98
2018-11-29T09:30:24.571Z,1.99
2018-11-29T09:32:55.279Z,2.30
2018-11-29T09:35:25.049Z,2.45
2018-11-29T09:37:54.735Z,2.53
2018-11-29T09:40:24.443Z,2.40
2018-11-29T09:42:54.257Z,2.20
2018-11-29T09:45:24.635Z,2.05
2018-11-29T09:47:55.850Z,1.95
2018-11-29T09:50:26.700Z,1.87
2018-11-29T09:52:56.477Z,1.76
2018-11-29T09:55:26.224Z,1.73
2018-11-29T09:57:56.025Z,1.83
2018-11-29T10:00:28.478Z,2.30
2018-11-29T10:03:12.964Z,2.65
2018-11-29T10:05:44.828Z,2.62
2018-11-29T10:08:16.552Z,2.74
2018-11-29T10:10:46.444Z,2.88
2018-11-29T10:13:16.156Z,2.73
2018-11-29T10:15:45.944Z,2.51
2018-11-29T10:18:15.768Z,2.26
2018-11-29T10:20:45.591Z,2.09
2018-11-29T10:23:15.486Z,1.93
2018-11-29T10:25:45.317Z,1.86
2018-11-29T10:28:16.733Z,1.92
2018-11-29T10:30:52.245Z,2.08
2018-11-29T10:33:22.244Z,2.30
2018-11-29T10:35:58.721Z,2.47
2018-11-29T10:38:22.155Z,2.61
2018-11-29T10:40:51.857Z,2.68
2018-11-29T10:43:21.636Z,2.60
2018-11-29T10:45:51.439Z,2.49
2018-11-29T10:48:23.201Z,2.44
2018-11-29T10:50:52.918Z,2.45
2018-11-29T10:53:22.643Z,2.50
2018-11-29T10:55:52.658Z,2.54
2018-11-29T10:58:22.754Z,2.52
2018-11-29T11:00:57.770Z,2.47
2018-11-29T11:03:27.608Z,2.43
2018-11-29T11:05:57.393Z,2.39
2018-11-29T11:08:27.229Z,2.34
2018-11-29T11:10:57.092Z,2.28
2018-11-29T11:13:26.817Z,2.21
2018-11-29T11:15:56.529Z,2.18
2018-11-29T11:18:26.347Z,2.18
2018-11-29T11:20:56.023Z,2.20
2018-11-29T11:23:25.799Z,2.24
2018-11-29T11:25:55.614Z,2.31
2018-11-29T11:28:25.410Z,2.36
2018-11-29T11:30:55.244Z,2.38
2018-11-29T11:33:25.032Z,2.44
2018-11-29T11:35:54.751Z,2.46
2018-11-29T11:38:24.473Z,2.50
2018-11-29T11:40:54.432Z,2.56
2018-11-29T11:43:24.133Z,2.59
2018-11-29T11:45:53.912Z,2.60
2018-11-29T11:48:23.645Z,2.58
2018-11-29T11:50:53.321Z,2.57
2018-11-29T11:53:23.043Z,2.58
2018-11-29T11:55:53.744Z,2.60
2018-11-29T11:58:22.536Z,2.61
2018-11-29T12:00:52.381Z,2.63
2018-11-29T12:03:22.250Z,2.64
2018-11-29T12:05:52.009Z,2.62
2018-11-29T12:08:21.822Z,2.60
2018-11-29T12:10:53.851Z,2.58
2018-11-29T12:13:26.677Z,2.60
2018-11-29T12:15:56.640Z,2.61
2018-11-29T12:18:26.346Z,2.62
2018-11-29T12:20:56.232Z,2.67
2018-11-29T12:23:25.973Z,2.73
2018-11-29T12:25:55.654Z,2.76
2018-11-29T12:28:25.422Z,2.82
2018-11-29T12:30:55.399Z,2.88
2018-11-29T12:33:25.118Z,2.89
2018-11-29T12:35:54.880Z,2.93
2018-11-29T12:38:24.741Z,2.93
2018-11-29T12:40:54.451Z,2.94
2018-11-29T12:43:24.240Z,2.99
2018-11-29T12:45:54.178Z,3.03
2018-11-29T12:48:23.864Z,3.04
2018-11-29T12:50:53.606Z,3.05
2018-11-29T12:53:23.784Z,3.07
2018-11-29T12:55:53.482Z,3.08
2018-11-29T12:58:23.289Z,3.08
2018-11-29T13:00:53.093Z,3.08
2018-11-29T13:03:22.761Z,3.12
2018-11-29T13:05:52.486Z,3.14
2018-11-29T13:08:25.870Z,3.18
2018-11-29T13:10:55.761Z,3.21
2018-11-29T13:13:27.557Z,3.23
2018-11-29T13:15:55.521Z,3.26
2018-11-29T13:18:25.245Z,3.30
2018-11-29T13:21:03.727Z,3.32
2018-11-29T13:23:33.416Z,3.35
2018-11-29T13:26:03.368Z,3.38
2018-11-29T13:28:33.042Z,3.39
2018-11-29T13:31:02.760Z,3.39
2018-11-29T13:33:33.067Z,3.38
2018-11-29T13:36:02.660Z,3.38
2018-11-29T13:38:32.380Z,3.36
2018-11-29T13:41:02.250Z,3.36
2018-11-29T13:43:32.291Z,3.35
2018-11-29T13:46:02.082Z,3.32
2018-11-29T13:48:31.795Z,3.28
2018-11-29T13:51:01.563Z,3.25
2018-11-29T13:53:31.264Z,3.22
2018-11-29T13:56:01.144Z,3.19
2018-11-29T13:58:30.842Z,3.14
2018-11-29T14:01:00.748Z,3.11
2018-11-29T14:03:30.465Z,3.08
2018-11-29T14:06:00.806Z,3.05
2018-11-29T14:08:30.552Z,3.01
2018-11-29T14:11:00.232Z,2.98
2018-11-29T14:13:29.906Z,2.94
2018-11-29T14:15:59.606Z,2.93
2018-11-29T14:18:29.382Z,2.90
2018-11-29T14:20:59.140Z,2.87
2018-11-29T14:23:28.868Z,2.83
2018-11-29T14:25:58.596Z,2.81
2018-11-29T14:28:28.374Z,2.80
2018-11-29T14:30:58.125Z,2.79
2018-11-29T14:33:27.824Z,2.79
2018-11-29T14:35:57.534Z,2.76
2018-11-29T14:38:27.311Z,2.74
2018-11-29T14:40:57.030Z,2.72
2018-11-29T14:43:26.732Z,2.70
2018-11-29T14:45:56.471Z,2.71
2018-11-29T14:48:26.171Z,2.70
2018-11-29T14:51:02.164Z,2.68
2018-11-29T14:53:25.829Z,2.65
2018-11-29T14:55:55.617Z,2.64
2018-11-29T14:58:25.313Z,2.63
2018-11-29T15:00:55.056Z,2.61
2018-11-29T15:03:24.931Z,2.59
2018-11-29T15:05:54.618Z,2.53
2018-11-29T15:08:24.300Z,2.52
2018-11-29T15:10:54.570Z,2.50
2018-11-29T15:13:24.248Z,2.46
2018-11-29T15:15:53.963Z,2.44
2018-11-29T15:18:23.681Z,2.45
2018-11-29T15:20:53.377Z,2.42
2018-11-29T15:23:23.104Z,2.38
2018-11-29T15:25:52.846Z,2.34
2018-11-29T15:28:22.603Z,2.31
2018-11-29T15:30:52.340Z,2.30
2018-11-29T15:33:22.052Z,2.33
2018-11-29T15:35:51.809Z,2.35
2018-11-29T15:38:21.508Z,2.36
2018-11-29T15:40:51.308Z,2.37
2018-11-29T15:43:21.020Z,2.37
2018-11-29T15:45:50.797Z,2.38
2018-11-29T15:48:20.541Z,2.38
2018-11-29T15:50:50.281Z,2.37
2018-11-29T15:53:20.090Z,2.37
2018-11-29T15:55:49.797Z,2.37
2018-11-29T15:58:19.660Z,2.38
2018-11-29T16:00:49.356Z,2.36
2018-11-29T16:03:19.080Z,2.34
2018-11-29T16:05:48.828Z,2.30
2018-11-29T16:08:18.555Z,2.28
2018-11-29T16:10:48.260Z,2.25
2018-11-29T16:13:17.966Z,2.22
2018-11-29T16:15:47.701Z,2.19
2018-11-29T16:18:17.506Z,2.16
2018-11-29T16:20:47.577Z,2.12
2018-11-29T16:23:17.337Z,2.08
2018-11-29T16:25:47.169Z,2.03
2018-11-29T16:28:16.952Z,2.01
2018-11-29T16:30:53.483Z,1.99
2018-11-29T16:33:31.866Z,1.97
2018-11-29T16:36:01.644Z,1.96
2018-11-29T16:38:31.539Z,1.92
2018-11-29T16:41:01.314Z,1.89
2018-11-29T16:43:31.113Z,1.88
2018-11-29T16:46:00.870Z,1.85
2018-11-29T16:48:30.612Z,1.81
2018-11-29T16:51:00.518Z,1.78
2018-11-29T16:53:30.194Z,1.78
2018-11-29T16:55:59.998Z,1.78
2018-11-29T16:58:31.428Z,1.77
2018-11-29T17:01:01.209Z,1.74
2018-11-29T17:03:31.057Z,1.70
2018-11-29T17:06:00.790Z,1.70
2018-11-29T17:08:30.663Z,1.69
2018-11-29T17:11:00.424Z,1.70
2018-11-29T17:13:30.280Z,1.69
2018-11-29T17:16:00.134Z,1.67
2018-11-29T17:18:29.857Z,1.64
2018-11-29T17:20:59.569Z,1.60
2018-11-29T17:23:29.379Z,1.58
2018-11-29T17:25:59.091Z,1.54
2018-11-29T17:28:29.049Z,1.53
2018-11-29T17:30:58.916Z,1.54
2018-11-29T17:33:28.695Z,1.53
2018-11-29T17:35:58.409Z,1.50
2018-11-29T17:38:28.091Z,1.47
2018-11-29T17:40:58.040Z,1.46
2018-11-29T17:43:27.738Z,1.47
2018-11-29T17:45:57.436Z,1.46
2018-11-29T17:48:27.190Z,1.45
2018-11-29T17:50:56.875Z,1.45
2018-11-29T17:53:26.671Z,1.46
2018-11-29T17:55:56.479Z,1.46
2018-11-29T17:58:26.364Z,1.45
2018-11-29T18:00:56.210Z,1.44
2018-11-29T18:03:25.920Z,1.43
2018-11-29T18:05:55.643Z,1.41
2018-11-29T18:08:25.326Z,1.39
2018-11-29T18:10:58.341Z,1.40
2018-11-29T18:13:37.053Z,1.42
2018-11-29T18:16:07.520Z,1.41
2018-11-29T18:18:37.255Z,1.41
2018-11-29T18:21:07.120Z,1.38
2018-11-29T18:23:36.804Z,1.36
2018-11-29T18:26:06.975Z,1.34
2018-11-29T18:28:36.720Z,1.32
2018-11-29T18:31:06.634Z,1.28
2018-11-29T18:33:36.345Z,1.25
2018-11-29T18:36:06.665Z,1.24
2018-11-29T18:38:36.394Z,1.22
2018-11-29T18:41:06.445Z,1.20
2018-11-29T18:43:36.377Z,1.19
2018-11-29T18:46:06.326Z,1.16
2018-11-29T18:48:36.058Z,1.12
2018-11-29T18:51:06.088Z,1.10
2018-11-29T18:53:35.792Z,1.11
2018-11-29T18:56:05.756Z,1.09
2018-11-29T18:58:35.473Z,1.10
2018-11-29T19:01:05.383Z,1.09
2018-11-29T19:03:35.124Z,1.06
2018-11-29T19:06:04.976Z,1.06
2018-11-29T19:08:34.693Z,1.03
2018-11-29T19:11:04.426Z,1.02
2018-11-29T19:13:34.346Z,1.01
2018-11-29T19:16:04.029Z,1.00
2018-11-29T19:18:33.748Z,0.96
2018-11-29T19:21:03.541Z,0.94
2018-11-29T19:23:33.329Z,0.91
2018-11-29T19:26:03.028Z,0.88
2018-11-29T19:28:32.716Z,0.85
2018-11-29T19:31:02.457Z,0.81
2018-11-29T19:33:32.161Z,0.77
2018-11-29T19:36:01.970Z,0.76
2018-11-29T19:38:31.803Z,0.73
2018-11-29T19:41:01.598Z,0.70
2018-11-29T19:43:31.314Z,0.70
2018-11-29T19:46:01.052Z,0.69
2018-11-29T19:48:30.800Z,0.68
2018-11-29T19:51:00.653Z,0.68
2018-11-29T19:53:30.422Z,0.66
2018-11-29T19:56:02.113Z,0.65
2018-11-29T19:58:31.814Z,0.65
2018-11-29T20:01:01.543Z,0.66
2018-11-29T20:03:31.355Z,0.64
2018-11-29T20:06:01.153Z,0.61
2018-11-29T20:08:30.984Z,0.59
2018-11-29T20:11:00.814Z,0.57
2018-11-29T20:13:30.563Z,0.57
2018-11-29T20:16:00.298Z,0.56
2018-11-29T20:18:30.030Z,0.53
2018-11-29T20:20:59.735Z,0.52
2018-11-29T20:23:29.542Z,0.51
2018-11-29T20:25:59.357Z,0.50
2018-11-29T20:28:29.132Z,0.48
2018-11-29T20:30:58.863Z,0.48
2018-11-29T20:33:28.644Z,0.48
2018-11-29T20:35:58.443Z,0.47
2018-11-29T20:38:28.235Z,0.45
2018-11-29T20:40:57.944Z,0.43
2018-11-29T20:43:27.740Z,0.43
2018-11-29T20:45:58.345Z,0.43
2018-11-29T20:48:29.904Z,0.43
2018-11-29T20:51:01.087Z,0.43
2018-11-29T20:53:37.762Z,0.41
2018-11-29T20:56:13.616Z,0.41
2018-11-29T20:58:43.326Z,0.41
2018-11-29T21:01:13.132Z,0.41
2018-11-29T21:03:42.930Z,0.40
2018-11-29T21:06:14.385Z,0.37
2018-11-29T21:08:44.163Z,0.33
2018-11-29T21:11:13.960Z,0.32
2018-11-29T21:13:43.752Z,0.30
2018-11-29T21:16:13.530Z,0.30
2018-11-29T21:18:43.393Z,0.30
2018-11-29T21:21:13.072Z,0.30
2018-11-29T21:23:42.846Z,0.28
2018-11-29T21:26:12.622Z,0.28
2018-11-29T21:28:42.301Z,0.29
2018-11-29T21:31:12.137Z,0.29
2018-11-29T21:33:41.982Z,0.29
2018-11-29T21:36:11.648Z,0.27
2018-11-29T21:38:41.321Z,0.28
2018-11-29T21:41:11.091Z,0.29
2018-11-29T21:43:40.862Z,0.29
2018-11-29T21:47:16.578Z,0.28
2018-11-29T21:49:46.299Z,0.26
2018-11-29T21:52:16.012Z,0.29
2018-11-29T21:54:45.928Z,0.28
2018-11-29T21:57:15.614Z,0.30
2018-11-29T21:59:45.384Z,0.31
2018-11-29T22:02:15.409Z,0.31
2018-11-29T22:04:45.449Z,0.32
2018-11-29T22:07:15.198Z,0.35
2018-11-29T22:09:45.100Z,0.39
2018-11-29T22:12:15.104Z,0.42
2018-11-29T22:14:44.939Z,0.45
2018-11-29T22:17:14.702Z,0.46
2018-11-29T22:19:44.448Z,0.51
2018-11-29T22:22:14.289Z,0.55
2018-11-29T22:24:44.041Z,0.57
2018-11-29T22:27:13.754Z,0.61
2018-11-29T22:29:43.524Z,0.63
2018-11-29T22:32:13.252Z,0.65
2018-11-29T22:34:43.030Z,0.67
2018-11-29T22:37:12.748Z,0.69
2018-11-29T22:39:42.484Z,0.72
2018-11-29T22:42:12.200Z,0.73
2018-11-29T22:44:41.975Z,0.75
2018-11-29T22:47:11.706Z,0.76
2018-11-29T22:49:41.426Z,0.77
2018-11-29T22:52:11.334Z,0.79
2018-11-29T22:54:41.091Z,0.80
2018-11-29T22:57:11.025Z,0.80
2018-11-29T22:59:41.512Z,0.80
2018-11-29T23:02:11.461Z,0.79
2018-11-29T23:04:41.376Z,0.77
2018-11-29T23:07:11.112Z,0.78
2018-11-29T23:09:40.887Z,0.76
2018-11-29T23:12:10.601Z,0.77
2018-11-29T23:14:40.356Z,0.75
2018-11-29T23:17:10.104Z,0.75
2018-11-29T23:19:39.960Z,0.74
2018-11-29T23:22:09.855Z,0.73
2018-11-29T23:24:39.592Z,0.73
2018-11-29T23:27:09.375Z,0.72
2018-11-29T23:29:39.149Z,0.72
2018-11-29T23:32:08.932Z,0.72
2018-11-29T23:34:38.680Z,0.70
2018-11-29T23:37:08.390Z,0.73
2018-11-29T23:39:38.174Z,0.74
2018-11-29T23:42:07.973Z,0.76
2018-11-29T23:44:37.695Z,0.76
2018-11-29T23:47:07.628Z,0.80
2018-11-29T23:49:37.340Z,0.82
2018-11-29T23:52:07.589Z,0.82
2018-11-29T23:54:37.305Z,0.81
2018-11-29T23:57:07.817Z,0.81
2018-11-29T23:59:37.782Z,0.81
